sensor_id;sensor_type;location;lat;lon;timestamp;pressure;altitude;pressure_sealevel;temperature;humidity
33163;BME280;29282;45.656;11.302;2022-07-31T00:00:47;98503.38;;;25.14;48.79
33163;BME280;29282;45.656;11.302;2022-07-31T00:03:13;98503.25;;;25.34;48.82
33163;BME280;29282;45.656;11.302;2022-07-31T00:05:38;98511.31;;;25.46;48.36
33163;BME280;29282;45.656;11.302;2022-07-31T00:08:04;98499.06;;;25.47;48.23
33163;BME280;29282;45.656;11.302;2022-07-31T00:10:30;98504.19;;;25.45;47.84
33163;BME280;29282;45.656;11.302;2022-07-31T00:12:55;98499.59;;;25.29;48.37
33163;BME280;29282;45.656;11.302;2022-07-31T00:15:21;98496.44;;;25.27;48.37
33163;BME280;29282;45.656;11.302;2022-07-31T00:17:47;98492.03;;;25.26;48.36
33163;BME280;29282;45.656;11.302;2022-07-31T00:20:14;98487.31;;;25.27;48.34
33163;BME280;29282;45.656;11.302;2022-07-31T00:22:42;98494.34;;;25.21;48.40
33163;BME280;29282;45.656;11.302;2022-07-31T00:25:09;98493.88;;;25.15;48.23
33163;BME280;29282;45.656;11.302;2022-07-31T00:27:34;98505.81;;;25.19;48.18
33163;BME280;29282;45.656;11.302;2022-07-31T00:30:00;98503.06;;;25.23;47.72
33163;BME280;29282;45.656;11.302;2022-07-31T00:32:26;98505.91;;;25.26;47.95
33163;BME280;29282;45.656;11.302;2022-07-31T00:34:51;98501.00;;;25.16;47.99
33163;BME280;29282;45.656;11.302;2022-07-31T00:37:17;98502.19;;;25.15;47.70
33163;BME280;29282;45.656;11.302;2022-07-31T00:39:42;98500.97;;;25.13;48.03
33163;BME280;29282;45.656;11.302;2022-07-31T00:42:19;98495.22;;;25.02;47.46
33163;BME280;29282;45.656;11.302;2022-07-31T00:44:45;98495.94;;;25.22;47.18
33163;BME280;29282;45.656;11.302;2022-07-31T00:47:11;98492.47;;;25.28;47.18
33163;BME280;29282;45.656;11.302;2022-07-31T00:49:37;98494.72;;;25.19;47.30
33163;BME280;29282;45.656;11.302;2022-07-31T00:52:03;98488.09;;;25.27;46.97
33163;BME280;29282;45.656;11.302;2022-07-31T00:54:29;98496.50;;;25.08;47.30
33163;BME280;29282;45.656;11.302;2022-07-31T00:56:54;98491.59;;;25.21;46.93
33163;BME280;29282;45.656;11.302;2022-07-31T00:59:30;98495.59;;;25.23;46.80
33163;BME280;29282;45.656;11.302;2022-07-31T01:01:59;98493.56;;;25.20;46.75
33163;BME280;29282;45.656;11.302;2022-07-31T01:04:25;98491.88;;;25.16;46.94
33163;BME280;29282;45.656;11.302;2022-07-31T01:06:52;98488.75;;;25.17;47.02
33163;BME280;29282;45.656;11.302;2022-07-31T01:09:18;98484.91;;;25.25;46.68
33163;BME280;29282;45.656;11.302;2022-07-31T01:11:50;98490.50;;;25.29;46.35
33163;BME280;29282;45.656;11.302;2022-07-31T01:14:18;98482.56;;;25.27;46.31
33163;BME280;29282;45.656;11.302;2022-07-31T01:16:47;98474.66;;;25.29;46.21
33163;BME280;29282;45.656;11.302;2022-07-31T01:30:05;98474.34;;;25.08;46.18
33163;BME280;29282;45.656;11.302;2022-07-31T01:32:34;98469.75;;;25.19;45.62
33163;BME280;29282;45.656;11.302;2022-07-31T01:35:06;98468.88;;;25.12;45.98
33163;BME280;29282;45.656;11.302;2022-07-31T01:37:39;98465.53;;;25.02;45.74
33163;BME280;29282;45.656;11.302;2022-07-31T01:40:20;98459.59;;;25.00;45.75
33163;BME280;29282;45.656;11.302;2022-07-31T01:42:53;98461.13;;;24.98;46.18
33163;BME280;29282;45.656;11.302;2022-07-31T01:45:21;98460.69;;;24.96;45.59
33163;BME280;29282;45.656;11.302;2022-07-31T01:47:47;98456.69;;;24.93;45.87
33163;BME280;29282;45.656;11.302;2022-07-31T01:50:14;98460.75;;;24.99;45.77
33163;BME280;29282;45.656;11.302;2022-07-31T01:52:41;98458.13;;;25.10;45.54
33163;BME280;29282;45.656;11.302;2022-07-31T01:55:08;98462.13;;;25.13;45.01
33163;BME280;29282;45.656;11.302;2022-07-31T01:57:36;98453.47;;;25.14;45.30
33163;BME280;29282;45.656;11.302;2022-07-31T02:00:06;98463.38;;;25.15;45.11
33163;BME280;29282;45.656;11.302;2022-07-31T02:02:33;98461.00;;;25.14;44.96
33163;BME280;29282;45.656;11.302;2022-07-31T02:05:00;98459.72;;;25.11;44.95
33163;BME280;29282;45.656;11.302;2022-07-31T02:07:27;98468.13;;;25.15;45.02
33163;BME280;29282;45.656;11.302;2022-07-31T02:09:54;98459.72;;;25.11;44.64
33163;BME280;29282;45.656;11.302;2022-07-31T02:12:21;98458.38;;;24.71;45.07
33163;BME280;29282;45.656;11.302;2022-07-31T02:14:48;98452.94;;;24.78;44.93
33163;BME280;29282;45.656;11.302;2022-07-31T02:17:15;98460.03;;;24.53;44.70
33163;BME280;29282;45.656;11.302;2022-07-31T02:19:41;98459.88;;;24.42;45.04
33163;BME280;29282;45.656;11.302;2022-07-31T02:22:07;98458.91;;;24.54;44.42
33163;BME280;29282;45.656;11.302;2022-07-31T02:24:33;98454.75;;;24.67;44.51
33163;BME280;29282;45.656;11.302;2022-07-31T02:26:59;98453.50;;;24.65;44.30
33163;BME280;29282;45.656;11.302;2022-07-31T02:32:11;98454.34;;;24.95;43.47
33163;BME280;29282;45.656;11.302;2022-07-31T02:34:39;98452.72;;;24.91;43.48
33163;BME280;29282;45.656;11.302;2022-07-31T02:37:05;98443.44;;;24.79;43.87
33163;BME280;29282;45.656;11.302;2022-07-31T02:39:33;98449.47;;;24.85;43.60
33163;BME280;29282;45.656;11.302;2022-07-31T02:41:59;98441.88;;;24.82;43.47
33163;BME280;29282;45.656;11.302;2022-07-31T02:44:27;98445.56;;;24.90;43.52
33163;BME280;29282;45.656;11.302;2022-07-31T02:46:53;98439.66;;;24.91;44.06
33163;BME280;29282;45.656;11.302;2022-07-31T02:49:19;98437.59;;;24.84;43.21
33163;BME280;29282;45.656;11.302;2022-07-31T02:51:45;98436.41;;;24.85;43.23
33163;BME280;29282;45.656;11.302;2022-07-31T02:54:11;98431.28;;;24.88;43.63
33163;BME280;29282;45.656;11.302;2022-07-31T02:56:37;98430.16;;;24.92;43.19
33163;BME280;29282;45.656;11.302;2022-07-31T02:59:03;98435.69;;;24.92;42.98
33163;BME280;29282;45.656;11.302;2022-07-31T03:01:33;98434.97;;;24.69;43.13
33163;BME280;29282;45.656;11.302;2022-07-31T03:03:59;98437.88;;;24.30;43.51
33163;BME280;29282;45.656;11.302;2022-07-31T03:06:24;98443.47;;;24.10;43.98
33163;BME280;29282;45.656;11.302;2022-07-31T03:08:50;98441.28;;;24.20;43.78
33163;BME280;29282;45.656;11.302;2022-07-31T03:11:15;98443.06;;;24.54;44.10
33163;BME280;29282;45.656;11.302;2022-07-31T03:13:42;98441.31;;;24.69;43.41
33163;BME280;29282;45.656;11.302;2022-07-31T03:16:09;98438.22;;;24.74;43.06
33163;BME280;29282;45.656;11.302;2022-07-31T03:18:38;98437.69;;;24.65;42.95
33163;BME280;29282;45.656;11.302;2022-07-31T03:21:04;98439.84;;;24.52;43.07
33163;BME280;29282;45.656;11.302;2022-07-31T03:23:30;98444.13;;;24.46;43.08
33163;BME280;29282;45.656;11.302;2022-07-31T03:26:01;98441.09;;;24.55;42.64
33163;BME280;29282;45.656;11.302;2022-07-31T03:28:26;98448.91;;;24.49;42.95
33163;BME280;29282;45.656;11.302;2022-07-31T03:30:52;98445.09;;;24.34;43.10
33163;BME280;29282;45.656;11.302;2022-07-31T03:33:19;98456.53;;;24.56;43.36
33163;BME280;29282;45.656;11.302;2022-07-31T03:35:46;98454.19;;;24.58;42.55
33163;BME280;29282;45.656;11.302;2022-07-31T03:38:12;98445.25;;;24.42;42.97
33163;BME280;29282;45.656;11.302;2022-07-31T03:40:38;98447.81;;;24.31;42.83
33163;BME280;29282;45.656;11.302;2022-07-31T03:43:04;98443.06;;;24.31;42.69
33163;BME280;29282;45.656;11.302;2022-07-31T03:45:31;98445.38;;;24.29;42.27
33163;BME280;29282;45.656;11.302;2022-07-31T03:47:59;98449.44;;;24.35;43.18
33163;BME280;29282;45.656;11.302;2022-07-31T03:50:25;98447.88;;;24.34;42.27
33163;BME280;29282;45.656;11.302;2022-07-31T03:52:51;98450.94;;;24.29;42.12
33163;BME280;29282;45.656;11.302;2022-07-31T03:55:17;98446.53;;;24.48;42.02
33163;BME280;29282;45.656;11.302;2022-07-31T03:57:43;98443.13;;;24.58;41.47
33163;BME280;29282;45.656;11.302;2022-07-31T04:00:10;98457.66;;;24.51;41.71
33163;BME280;29282;45.656;11.302;2022-07-31T04:02:35;98452.28;;;24.39;41.61
33163;BME280;29282;45.656;11.302;2022-07-31T04:05:01;98452.91;;;24.52;41.34
33163;BME280;29282;45.656;11.302;2022-07-31T04:07:27;98450.63;;;24.11;41.94
33163;BME280;29282;45.656;11.302;2022-07-31T04:09:52;98451.88;;;24.14;41.84
33163;BME280;29282;45.656;11.302;2022-07-31T04:12:18;98449.75;;;23.84;42.23
33163;BME280;29282;45.656;11.302;2022-07-31T04:14:44;98440.53;;;24.00;41.98
33163;BME280;29282;45.656;11.302;2022-07-31T04:17:09;98448.28;;;24.13;42.21
33163;BME280;29282;45.656;11.302;2022-07-31T04:19:35;98448.66;;;24.35;41.73
33163;BME280;29282;45.656;11.302;2022-07-31T04:22:00;98453.66;;;24.49;41.16
33163;BME280;29282;45.656;11.302;2022-07-31T04:24:26;98443.66;;;24.41;40.70
33163;BME280;29282;45.656;11.302;2022-07-31T04:26:56;98445.84;;;24.31;40.93
33163;BME280;29282;45.656;11.302;2022-07-31T04:29:22;98439.00;;;24.25;40.77
33163;BME280;29282;45.656;11.302;2022-07-31T04:31:47;98447.06;;;24.11;40.54
33163;BME280;29282;45.656;11.302;2022-07-31T04:34:13;98449.91;;;24.14;40.42
33163;BME280;29282;45.656;11.302;2022-07-31T04:36:38;98449.28;;;24.25;40.24
33163;BME280;29282;45.656;11.302;2022-07-31T04:39:04;98447.44;;;24.09;40.09
33163;BME280;29282;45.656;11.302;2022-07-31T04:41:29;98452.28;;;24.16;40.17
33163;BME280;29282;45.656;11.302;2022-07-31T04:43:55;98446.34;;;24.14;40.02
33163;BME280;29282;45.656;11.302;2022-07-31T04:46:24;98453.03;;;24.36;40.50
33163;BME280;29282;45.656;11.302;2022-07-31T04:48:50;98454.84;;;24.48;40.26
33163;BME280;29282;45.656;11.302;2022-07-31T04:51:19;98454.03;;;24.24;40.13
33163;BME280;29282;45.656;11.302;2022-07-31T04:53:46;98451.03;;;24.36;39.69
33163;BME280;29282;45.656;11.302;2022-07-31T04:56:12;98459.72;;;24.12;40.21
33163;BME280;29282;45.656;11.302;2022-07-31T04:58:56;98458.53;;;23.90;40.49
33163;BME280;29282;45.656;11.302;2022-07-31T05:01:22;98453.75;;;23.67;40.75
33163;BME280;29282;45.656;11.302;2022-07-31T05:03:47;98460.69;;;24.00;41.37
33163;BME280;29282;45.656;11.302;2022-07-31T05:06:13;98455.78;;;24.13;40.11
33163;BME280;29282;45.656;11.302;2022-07-31T05:08:39;98459.19;;;24.26;40.59
33163;BME280;29282;45.656;11.302;2022-07-31T05:11:05;98458.56;;;24.36;40.04
33163;BME280;29282;45.656;11.302;2022-07-31T05:13:56;98453.53;;;24.42;40.52
33163;BME280;29282;45.656;11.302;2022-07-31T05:16:23;98450.81;;;24.45;40.23
33163;BME280;29282;45.656;11.302;2022-07-31T05:18:49;98446.53;;;24.48;40.35
33163;BME280;29282;45.656;11.302;2022-07-31T05:21:16;98447.38;;;24.52;39.66
33163;BME280;29282;45.656;11.302;2022-07-31T05:23:43;98438.75;;;24.57;39.56
33163;BME280;29282;45.656;11.302;2022-07-31T05:26:09;98436.84;;;24.61;39.56
33163;BME280;29282;45.656;11.302;2022-07-31T05:28:35;98430.00;;;24.55;39.46
33163;BME280;29282;45.656;11.302;2022-07-31T05:31:01;98428.03;;;24.55;40.35
33163;BME280;29282;45.656;11.302;2022-07-31T05:33:27;98438.75;;;24.57;38.97
33163;BME280;29282;45.656;11.302;2022-07-31T05:35:54;98428.47;;;24.57;39.12
33163;BME280;29282;45.656;11.302;2022-07-31T05:38:19;98432.44;;;24.60;38.86
33163;BME280;29282;45.656;11.302;2022-07-31T05:40:45;98438.00;;;24.60;38.47
33163;BME280;29282;45.656;11.302;2022-07-31T05:43:10;98430.13;;;24.62;38.80
33163;BME280;29282;45.656;11.302;2022-07-31T05:45:36;98430.59;;;24.68;38.59
33163;BME280;29282;45.656;11.302;2022-07-31T05:48:02;98426.31;;;24.70;38.69
33163;BME280;29282;45.656;11.302;2022-07-31T05:50:27;98434.72;;;24.77;37.83
33163;BME280;29282;45.656;11.302;2022-07-31T05:52:53;98433.84;;;24.73;38.10
33163;BME280;29282;45.656;11.302;2022-07-31T05:55:19;98440.25;;;24.77;38.19
33163;BME280;29282;45.656;11.302;2022-07-31T05:57:45;98443.44;;;24.79;38.33
33163;BME280;29282;45.656;11.302;2022-07-31T06:00:11;98441.53;;;24.83;37.54
33163;BME280;29282;45.656;11.302;2022-07-31T06:02:37;98440.34;;;24.84;38.06
33163;BME280;29282;45.656;11.302;2022-07-31T06:05:03;98439.56;;;24.84;38.33
33163;BME280;29282;45.656;11.302;2022-07-31T06:07:29;98442.38;;;24.88;38.21
33163;BME280;29282;45.656;11.302;2022-07-31T06:09:55;98443.16;;;24.88;38.09
33163;BME280;29282;45.656;11.302;2022-07-31T06:12:20;98433.31;;;24.91;38.44
33163;BME280;29282;45.656;11.302;2022-07-31T06:14:46;98440.44;;;24.92;38.59
33163;BME280;29282;45.656;11.302;2022-07-31T06:17:11;98436.09;;;24.91;38.25
33163;BME280;29282;45.656;11.302;2022-07-31T06:19:37;98442.84;;;24.93;38.48
33163;BME280;29282;45.656;11.302;2022-07-31T06:22:02;98440.88;;;24.94;38.62
33163;BME280;29282;45.656;11.302;2022-07-31T06:24:28;98441.69;;;24.94;38.42
33163;BME280;29282;45.656;11.302;2022-07-31T06:26:58;98446.84;;;24.96;38.27
33163;BME280;29282;45.656;11.302;2022-07-31T06:29:27;98439.31;;;24.96;38.66
33163;BME280;29282;45.656;11.302;2022-07-31T06:31:53;98437.38;;;24.97;38.47
33163;BME280;29282;45.656;11.302;2022-07-31T06:34:19;98440.53;;;24.99;38.82
33163;BME280;29282;45.656;11.302;2022-07-31T06:36:45;98433.13;;;25.06;38.27
33163;BME280;29282;45.656;11.302;2022-07-31T06:39:10;98434.78;;;25.11;38.47
33163;BME280;29282;45.656;11.302;2022-07-31T06:41:36;98431.66;;;25.13;38.62
33163;BME280;29282;45.656;11.302;2022-07-31T06:44:18;98432.81;;;25.12;38.92
33163;BME280;29282;45.656;11.302;2022-07-31T06:46:45;98426.09;;;25.13;39.30
33163;BME280;29282;45.656;11.302;2022-07-31T06:49:10;98427.31;;;25.15;38.71
33163;BME280;29282;45.656;11.302;2022-07-31T06:51:36;98422.97;;;25.14;38.94
33163;BME280;29282;45.656;11.302;2022-07-31T06:54:04;98426.91;;;25.13;39.21
33163;BME280;29282;45.656;11.302;2022-07-31T06:56:30;98427.72;;;25.14;38.68
33163;BME280;29282;45.656;11.302;2022-07-31T06:58:57;98421.78;;;25.15;38.82
33163;BME280;29282;45.656;11.302;2022-07-31T07:01:22;98425.00;;;25.17;38.70
33163;BME280;29282;45.656;11.302;2022-07-31T07:03:48;98425.41;;;25.19;38.62
33163;BME280;29282;45.656;11.302;2022-07-31T07:06:13;98427.41;;;25.22;38.61
33163;BME280;29282;45.656;11.302;2022-07-31T07:08:39;98420.72;;;25.23;38.79
33163;BME280;29282;45.656;11.302;2022-07-31T07:11:05;98418.34;;;25.25;38.94
33163;BME280;29282;45.656;11.302;2022-07-31T07:13:30;98418.34;;;25.25;39.19
33163;BME280;29282;45.656;11.302;2022-07-31T07:15:56;98422.69;;;25.26;39.21
33163;BME280;29282;45.656;11.302;2022-07-31T07:18:21;98421.56;;;25.27;39.47
33163;BME280;29282;45.656;11.302;2022-07-31T07:20:48;98419.19;;;25.29;39.48
33163;BME280;29282;45.656;11.302;2022-07-31T07:23:13;98421.59;;;25.31;39.32
33163;BME280;29282;45.656;11.302;2022-07-31T07:25:39;98420.00;;;25.30;39.58
33163;BME280;29282;45.656;11.302;2022-07-31T07:28:06;98416.00;;;25.27;39.60
33163;BME280;29282;45.656;11.302;2022-07-31T07:30:32;98416.00;;;25.27;39.68
33163;BME280;29282;45.656;11.302;2022-07-31T07:32:58;98421.16;;;25.29;39.62
33163;BME280;29282;45.656;11.302;2022-07-31T07:35:27;98409.72;;;25.30;39.59
33163;BME280;29282;45.656;11.302;2022-07-31T07:37:53;98410.94;;;25.33;39.65
33163;BME280;29282;45.656;11.302;2022-07-31T07:40:19;98410.16;;;25.36;39.60
33163;BME280;29282;45.656;11.302;2022-07-31T07:42:45;98405.03;;;25.38;39.47
33163;BME280;29282;45.656;11.302;2022-07-31T07:45:11;98411.38;;;25.39;39.73
33163;BME280;29282;45.656;11.302;2022-07-31T07:47:37;98413.00;;;25.40;39.83
33163;BME280;29282;45.656;11.302;2022-07-31T07:50:05;98411.38;;;25.39;39.77
33163;BME280;29282;45.656;11.302;2022-07-31T07:52:32;98411.81;;;25.41;39.93
33163;BME280;29282;45.656;11.302;2022-07-31T07:54:58;98411.00;;;25.40;39.96
33163;BME280;29282;45.656;11.302;2022-07-31T07:57:23;98404.28;;;25.41;39.67
33163;BME280;29282;45.656;11.302;2022-07-31T07:59:49;98401.50;;;25.41;39.91
33163;BME280;29282;45.656;11.302;2022-07-31T08:02:15;98405.88;;;25.42;39.83
33163;BME280;29282;45.656;11.302;2022-07-31T08:04:41;98403.53;;;25.44;40.12
33163;BME280;29282;45.656;11.302;2022-07-31T08:07:07;98398.78;;;25.45;39.89
33163;BME280;29282;45.656;11.302;2022-07-31T08:09:33;98399.94;;;25.44;40.08
33163;BME280;29282;45.656;11.302;2022-07-31T08:11:59;98397.19;;;25.44;40.04
33163;BME280;29282;45.656;11.302;2022-07-31T08:14:25;98403.13;;;25.46;39.93
33163;BME280;29282;45.656;11.302;2022-07-31T08:16:51;98403.53;;;25.44;39.98
33163;BME280;29282;45.656;11.302;2022-07-31T08:19:17;98401.53;;;25.45;40.56
33163;BME280;29282;45.656;11.302;2022-07-31T08:21:42;98399.56;;;25.45;40.33
33163;BME280;29282;45.656;11.302;2022-07-31T08:24:08;98400.34;;;25.46;40.13
33163;BME280;29282;45.656;11.302;2022-07-31T08:26:36;98395.63;;;25.46;40.17
33163;BME280;29282;45.656;11.302;2022-07-31T08:29:20;98390.88;;;25.47;40.32
33163;BME280;29282;45.656;11.302;2022-07-31T08:31:46;98392.84;;;25.46;40.27
33163;BME280;29282;45.656;11.302;2022-07-31T08:34:11;98394.00;;;25.45;40.34
33163;BME280;29282;45.656;11.302;2022-07-31T08:36:37;98395.63;;;25.46;40.71
33163;BME280;29282;45.656;11.302;2022-07-31T08:39:03;98394.00;;;25.45;40.66
33163;BME280;29282;45.656;11.302;2022-07-31T08:41:29;98386.47;;;25.46;40.43
33163;BME280;29282;45.656;11.302;2022-07-31T08:43:57;98388.09;;;25.47;40.26
33163;BME280;29282;45.656;11.302;2022-07-31T08:46:23;98388.91;;;25.47;40.52
33163;BME280;29282;45.656;11.302;2022-07-31T08:48:50;98385.72;;;25.49;40.17
33163;BME280;29282;45.656;11.302;2022-07-31T08:51:22;98390.47;;;25.48;40.11
33163;BME280;29282;45.656;11.302;2022-07-31T08:53:50;98392.06;;;25.49;40.62
33163;BME280;29282;45.656;11.302;2022-07-31T08:56:16;98390.13;;;25.50;40.05
33163;BME280;29282;45.656;11.302;2022-07-31T08:58:43;98395.66;;;25.50;40.31
33163;BME280;29282;45.656;11.302;2022-07-31T09:01:12;98396.47;;;25.50;40.10
33163;BME280;29282;45.656;11.302;2022-07-31T09:03:38;98385.38;;;25.50;40.49
33163;BME280;29282;45.656;11.302;2022-07-31T09:06:04;98395.66;;;25.50;40.68
33163;BME280;29282;45.656;11.302;2022-07-31T09:08:35;98393.72;;;25.54;40.48
33163;BME280;29282;45.656;11.302;2022-07-31T09:13:27;98394.91;;;25.53;40.55
33163;BME280;29282;45.656;11.302;2022-07-31T09:15:56;98396.50;;;25.54;40.80
33163;BME280;29282;45.656;11.302;2022-07-31T09:18:23;98395.72;;;25.53;40.51
33163;BME280;29282;45.656;11.302;2022-07-31T09:23:22;98395.31;;;25.55;40.59
33163;BME280;29282;45.656;11.302;2022-07-31T09:26:14;98396.91;;;25.56;40.74
33163;BME280;29282;45.656;11.302;2022-07-31T09:28:42;98394.13;;;25.56;40.54
33163;BME280;29282;45.656;11.302;2022-07-31T09:31:09;98389.41;;;25.57;40.29
33163;BME280;29282;45.656;11.302;2022-07-31T09:33:35;98375.53;;;25.57;40.68
33163;BME280;29282;45.656;11.302;2022-07-31T09:36:04;98380.69;;;25.58;40.71
33163;BME280;29282;45.656;11.302;2022-07-31T09:38:36;98386.66;;;25.60;40.93
33163;BME280;29282;45.656;11.302;2022-07-31T09:41:17;98376.72;;;25.59;41.07
33163;BME280;29282;45.656;11.302;2022-07-31T09:43:43;98373.16;;;25.59;40.78
33163;BME280;29282;45.656;11.302;2022-07-31T09:46:09;98364.81;;;25.59;41.00
33163;BME280;29282;45.656;11.302;2022-07-31T09:48:35;98369.59;;;25.58;40.73
33163;BME280;29282;45.656;11.302;2022-07-31T09:51:03;98370.00;;;25.60;40.86
33163;BME280;29282;45.656;11.302;2022-07-31T09:53:40;98362.84;;;25.59;41.25
33163;BME280;29282;45.656;11.302;2022-07-31T09:56:06;98361.69;;;25.60;41.08
33163;BME280;29282;45.656;11.302;2022-07-31T09:58:32;98358.13;;;25.60;41.20
33163;BME280;29282;45.656;11.302;2022-07-31T10:00:59;98352.56;;;25.60;41.20
33163;BME280;29282;45.656;11.302;2022-07-31T10:03:25;98361.69;;;25.60;41.27
33163;BME280;29282;45.656;11.302;2022-07-31T10:05:52;98356.94;;;25.61;41.25
33163;BME280;29282;45.656;11.302;2022-07-31T10:08:20;98359.72;;;25.61;41.30
33163;BME280;29282;45.656;11.302;2022-07-31T10:10:48;98354.16;;;25.61;41.24
33163;BME280;29282;45.656;11.302;2022-07-31T10:13:14;98351.38;;;25.61;41.15
33163;BME280;29282;45.656;11.302;2022-07-31T10:15:46;98346.63;;;25.61;41.29
33163;BME280;29282;45.656;11.302;2022-07-31T10:18:16;98341.09;;;25.61;41.08
33163;BME280;29282;45.656;11.302;2022-07-31T10:20:48;98341.09;;;25.61;41.26
33163;BME280;29282;45.656;11.302;2022-07-31T10:23:20;98343.84;;;25.61;41.45
33163;BME280;29282;45.656;11.302;2022-07-31T10:25:55;98349.41;;;25.61;41.39
33163;BME280;29282;45.656;11.302;2022-07-31T10:28:21;98345.44;;;25.62;41.51
33163;BME280;29282;45.656;11.302;2022-07-31T10:30:48;98351.78;;;25.63;41.46
33163;BME280;29282;45.656;11.302;2022-07-31T10:33:14;98347.06;;;25.63;41.42
33163;BME280;29282;45.656;11.302;2022-07-31T10:35:44;98341.50;;;25.63;41.32
33163;BME280;29282;45.656;11.302;2022-07-31T10:38:16;98343.09;;;25.64;41.38
33163;BME280;29282;45.656;11.302;2022-07-31T10:43:38;98331.59;;;25.66;41.49
33163;BME280;29282;45.656;11.302;2022-07-31T10:46:06;98326.88;;;25.66;41.97
33163;BME280;29282;45.656;11.302;2022-07-31T10:48:31;98325.69;;;25.67;41.92
33163;BME280;29282;45.656;11.302;2022-07-31T10:51:05;98328.47;;;25.67;41.79
33163;BME280;29282;45.656;11.302;2022-07-31T10:53:33;98335.59;;;25.68;41.78
33163;BME280;29282;45.656;11.302;2022-07-31T10:56:03;98334.00;;;25.67;41.95
33163;BME280;29282;45.656;11.302;2022-07-31T10:58:29;98328.47;;;25.67;42.06
33163;BME280;29282;45.656;11.302;2022-07-31T11:01:08;98326.47;;;25.68;41.98
33163;BME280;29282;45.656;11.302;2022-07-31T11:03:46;98324.50;;;25.68;41.91
33163;BME280;29282;45.656;11.302;2022-07-31T11:06:16;98325.28;;;25.69;41.99
33163;BME280;29282;45.656;11.302;2022-07-31T11:08:47;98319.75;;;25.72;41.84
33163;BME280;29282;45.656;11.302;2022-07-31T11:11:13;98318.59;;;25.73;42.24
33163;BME280;29282;45.656;11.302;2022-07-31T11:13:50;98312.69;;;25.78;42.20
33163;BME280;29282;45.656;11.302;2022-07-31T11:16:17;98313.53;;;25.83;42.42
33163;BME280;29282;45.656;11.302;2022-07-31T11:18:43;98303.66;;;25.85;42.55
33163;BME280;29282;45.656;11.302;2022-07-31T11:21:11;98318.34;;;25.89;42.58
33163;BME280;29282;45.656;11.302;2022-07-31T11:23:36;98313.59;;;25.86;42.82
33163;BME280;29282;45.656;11.302;2022-07-31T11:26:04;98304.41;;;25.82;42.69
33163;BME280;29282;45.656;11.302;2022-07-31T11:28:31;98305.22;;;25.83;42.84
33163;BME280;29282;45.656;11.302;2022-07-31T11:31:03;98300.84;;;25.82;42.46
33163;BME280;29282;45.656;11.302;2022-07-31T11:36:05;98305.16;;;25.79;42.60
33163;BME280;29282;45.656;11.302;2022-07-31T11:38:31;98298.81;;;25.78;42.93
33163;BME280;29282;45.656;11.302;2022-07-31T11:40:57;98293.25;;;25.78;43.01
33163;BME280;29282;45.656;11.302;2022-07-31T11:43:22;98297.66;;;25.80;42.84
33163;BME280;29282;45.656;11.302;2022-07-31T11:45:49;98296.84;;;25.79;42.95
33163;BME280;29282;45.656;11.302;2022-07-31T11:48:17;98298.47;;;25.80;43.00
33163;BME280;29282;45.656;11.302;2022-07-31T11:50:43;98287.72;;;25.78;42.87
33163;BME280;29282;45.656;11.302;2022-07-31T11:53:10;98289.69;;;25.78;43.01
33163;BME280;29282;45.656;11.302;2022-07-31T11:55:50;98275.81;;;25.78;42.83
33163;BME280;29282;45.656;11.302;2022-07-31T11:58:19;98271.06;;;25.78;42.90
33163;BME280;29282;45.656;11.302;2022-07-31T12:01:00;98275.81;;;25.78;42.98
33163;BME280;29282;45.656;11.302;2022-07-31T12:03:34;98273.84;;;25.78;42.92
33163;BME280;29282;45.656;11.302;2022-07-31T12:06:04;98276.28;;;25.80;43.17
33163;BME280;29282;45.656;11.302;2022-07-31T12:08:30;98278.66;;;25.82;43.06
33163;BME280;29282;45.656;11.302;2022-07-31T12:10:58;98270.72;;;25.80;43.22
33163;BME280;29282;45.656;11.302;2022-07-31T12:13:28;98275.50;;;25.83;43.05
33163;BME280;29282;45.656;11.302;2022-07-31T12:16:00;98272.34;;;25.85;43.29
33163;BME280;29282;45.656;11.302;2022-07-31T12:18:30;98270.75;;;25.84;43.25
33163;BME280;29282;45.656;11.302;2022-07-31T12:21:03;98269.13;;;25.83;43.34
33163;BME280;29282;45.656;11.302;2022-07-31T12:23:58;98261.63;;;25.83;43.33
33163;BME280;29282;45.656;11.302;2022-07-31T12:26:26;98266.34;;;25.83;43.46
33163;BME280;29282;45.656;11.302;2022-07-31T12:29:02;98261.22;;;25.81;43.43
33163;BME280;29282;45.656;11.302;2022-07-31T12:31:29;98252.88;;;25.81;43.71
33163;BME280;29282;45.656;11.302;2022-07-31T12:33:55;98245.34;;;25.82;43.40
33163;BME280;29282;45.656;11.302;2022-07-31T12:36:21;98249.31;;;25.81;43.33
33163;BME280;29282;45.656;11.302;2022-07-31T12:38:58;98245.34;;;25.82;43.33
33163;BME280;29282;45.656;11.302;2022-07-31T12:41:24;98237.03;;;25.82;43.05
33163;BME280;29282;45.656;11.302;2022-07-31T12:43:50;98238.59;;;25.83;43.22
33163;BME280;29282;45.656;11.302;2022-07-31T12:46:15;98242.19;;;25.83;43.19
33163;BME280;29282;45.656;11.302;2022-07-31T12:48:41;98243.78;;;25.84;43.20
33163;BME280;29282;45.656;11.302;2022-07-31T12:51:06;98231.91;;;25.84;43.24
33163;BME280;29282;45.656;11.302;2022-07-31T12:53:32;98225.16;;;25.85;42.94
33163;BME280;29282;45.656;11.302;2022-07-31T12:55:57;98221.59;;;25.84;43.06
33163;BME280;29282;45.656;11.302;2022-07-31T12:58:23;98232.69;;;25.84;43.21
33163;BME280;29282;45.656;11.302;2022-07-31T13:00:49;98226.34;;;25.84;43.34
33163;BME280;29282;45.656;11.302;2022-07-31T13:03:14;98227.13;;;25.84;43.28
33163;BME280;29282;45.656;11.302;2022-07-31T13:05:40;98222.78;;;25.83;43.19
33163;BME280;29282;45.656;11.302;2022-07-31T13:08:05;98222.38;;;25.85;43.42
33163;BME280;29282;45.656;11.302;2022-07-31T13:10:33;98214.84;;;25.85;43.74
33163;BME280;29282;45.656;11.302;2022-07-31T13:12:59;98217.63;;;25.85;43.59
33163;BME280;29282;45.656;11.302;2022-07-31T13:15:24;98217.63;;;25.85;43.57